Results: 2022 Americas Triathlon Cup Salinas | Elite Men
Salinas, Ecuador • 24 Apr, 2022
Pos First Name Last Name YOB Country Start
Num
Time Swim
750m
T1 Bike
21.6km
T2 Run
5km
1 Miguel Hidalgo 2000 BRA 1 00:56:04 00:08:48 00:01:03 00:30:34 00:00:24 00:15:18
2 David Mendoza 1992 MEX 29 00:56:25 00:09:08 00:00:58 00:30:57 00:00:23 00:15:03
3 Brent Demarest 1995 USA 3 00:56:37 00:09:07 00:01:03 00:30:54 00:00:23 00:15:12
4 Juan Jose Andrade Figueroa 1993 ECU 4 00:56:43 00:09:11 00:00:57 00:30:59 00:00:22 00:15:16
5 Kauê Willy 1996 BRA 7 00:56:51 00:08:56 00:01:05 00:31:01 00:00:25 00:15:27
6 Austin Hindman 1998 USA 2 00:56:55 00:09:04 00:01:02 00:30:59 00:00:22 00:15:31
7 Antonio Bravo Neto 1999 BRA 5 00:57:02 00:09:10 00:00:59 00:30:58 00:00:21 00:15:37
8 Gabriel Terán Carvajal 2001 ECU 11 00:57:03 00:09:00 00:01:02 00:31:04 00:00:23 00:15:38
9 Benedikt Bettin 2001 GER 24 00:57:12 00:09:12 00:01:00 00:30:51 00:00:23 00:15:49
10 Mitsuho Mochizuki 2000 JPN 14 00:57:17 00:08:46 00:01:13 00:31:05 00:00:24 00:15:53
11 Mathis Beaulieu 2004 CAN 42 00:57:20 00:09:27 00:01:02 00:31:12 00:00:24 00:15:17
12 John Reed 2001 USA 21 00:57:20 00:08:54 00:01:04 00:31:08 00:00:28 00:15:49
13 Thomas Sonnery-Cottet 1998 USA 18 00:57:39 00:08:57 00:01:02 00:31:05 00:00:24 00:16:14
14 Diego Alejandro Lopez Acosta 1997 MEX 12 00:57:40 00:09:07 00:01:00 00:30:57 00:00:22 00:16:18
15 Alvaro Campos Solano 2000 CRC 20 00:57:43 00:09:08 00:01:00 00:30:58 00:00:24 00:16:16
16 Andrew Shellenberger 2002 USA 16 00:57:48 00:08:59 00:01:06 00:31:00 00:00:26 00:16:20
17 Yago Alves 1998 BRA 10 00:58:08 00:09:17 00:01:01 00:31:24 00:00:26 00:16:04
18 Leo Roy 2002 CAN 31 00:58:14 00:09:24 00:01:04 00:31:13 00:00:22 00:16:14
19 Griff Morgan 1998 USA 26 00:58:15 00:08:56 00:01:07 00:31:03 00:00:24 00:16:49
20 Andres Barrionuevo 1996 ECU 23 00:58:36 00:09:23 00:00:59 00:31:18 00:00:23 00:16:35
21 Erik Yamir Ramos Croda 2001 MEX 19 00:58:51 00:09:22 00:01:00 00:31:17 00:00:19 00:16:56
22 Cesar Xavier Criollo Matute 2003 ECU 28 00:59:20 00:09:11 00:00:59 00:31:35 00:00:24 00:17:14
23 Hugo Jan Bosscher 2000 NED 53 00:59:24 00:09:11 00:01:08 00:31:21 00:00:25 00:17:21
24 Nicholas Holmes 2002 USA 22 00:59:35 00:09:44 00:01:00 00:32:25 00:00:20 00:16:09
25 Felipe Bianchi 1994 BRA 15 00:59:42 00:09:11 00:01:16 00:32:39 00:00:24 00:16:14
26 Hugo Mario Ruiz Dimate 1997 COL 8 00:59:51 00:09:29 00:01:02 00:32:41 00:00:24 00:16:18
27 David Vega Campoverde 2004 ECU 25 01:00:51 00:09:12 00:01:01 00:32:59 00:00:26 00:17:16
28 Olaf Jan Bosscher 2002 NED 49 01:00:56 00:09:31 00:01:05 00:32:33 00:00:24 00:17:25
29 Sage Sulentic 2004 CAN 44 01:01:02 00:09:35 00:01:11 00:32:24 00:00:31 00:17:24
30 Juan Diego Cuesta Santana 1996 ECU 35 01:01:12 00:09:50 00:01:05 00:33:23 00:00:22 00:16:35
31 Aurél Sinkó-Uribe 1999 TRI 34 01:01:15 00:09:09 00:01:11 00:32:51 00:00:25 00:17:41
32 Joaquin Solis Narvaez 2002 ECU 30 01:01:16 00:09:28 00:01:02 00:33:46 00:00:27 00:16:35
33 Allan Naranjo Avendaño 2002 CRC 37 01:01:17 00:09:56 00:01:08 00:33:12 00:00:25 00:16:38
34 Louis Marchand 2003 CAN 43 01:01:36 00:09:45 00:01:05 00:33:28 00:00:23 00:16:57
35 Martin Garcia 2001 ECU 40 01:01:42 00:10:00 00:01:14 00:33:04 00:00:29 00:16:58
36 Gabriel Joaquin Quito Tello 2004 ECU 50 01:02:37 00:10:00 00:01:02 00:34:26 00:00:21 00:16:50
37 Nicolas Bolouri 2003 CAN 32 01:02:48 00:09:32 00:01:03 00:32:36 00:00:22 00:19:19
38 Galver Andres Alarcon Posligua 2001 ECU 39 01:03:12 00:09:08 00:01:03 00:34:08 00:00:24 00:18:32
39 Mathieu Benoit 1999 CAN 51 01:03:25 00:09:52 00:01:11 00:33:16 00:00:24 00:18:45
40 Sebastián Andrés Gómez Palta 2005 COL 55 01:03:32 00:10:22 00:01:12 00:33:53 00:00:24 00:17:44
41 Johnny Eduardo Mena Estrella 2000 ECU 56 01:03:32 00:10:24 00:01:15 00:33:47 00:00:24 00:17:46
42 Samuel Zuluaga Cardona 2005 COL 48 01:04:31 00:10:22 00:01:11 00:33:51 00:00:24 00:18:47
43 Mateo Pesantez 2005 ECU 41 01:04:54 00:09:51 00:01:09 00:34:30 00:00:27 00:19:00
44 Marcelo Andres Delgado Landázuri 2003 ECU 45 01:05:11 00:10:23 00:01:13 00:33:54 00:00:30 00:19:14
45 Juan Camilo Villa Dorado 2000 COL 47 01:05:36 00:10:22 00:01:13 00:33:51 00:00:26 00:19:47
DNF Miguel Tiago Silva 1998 POR 6 00:08:53 00:01:07 00:00:00 00:00:00 00:00:00
DNF Matias Sebastian Bravo Delgado 2002 ECU 27 00:09:34 00:01:10 00:00:00 00:00:00 00:00:00
DNF Fabian Ignacio Palacios Tmayo 2005 CHI 54 00:09:59 00:01:15 00:00:00 00:00:00 00:00:00
DNF Anderson Bastidas Molina 2001 ECU 57 00:10:12 00:01:14 00:00:00 00:00:00 00:00:00
Program notes:

Technical Delegate: Jose Fernando Espinosa/COL. Head Referee: Jimmy Lincoln/ECU. Competition Jury: Jose Fernando Espinosa/COL, Kelly Mora/ECU, Cristian Batson/ECU.
Distances: Swim 750 m. (1 lap), bike 21.6 km (4 laps), run 5 km (3 laps)
Water temperature 26ºC, air temperature 27.5ºC. Wetsuits not allowed.
Athletes #14 Mochizuki/ JPN, Bianchi/BRA and #57 Bastidas Molina/ECU served 10 seconds penalty in T1.